Time,TemperatureF,DewpointF,PressureIn,WindDirection,WindDirectionDegrees,WindSpeedMPH,WindSpeedGustMPH,Humidity,HourlyPrecipIn,Conditions,Clouds,dailyrainin,SoftwareType,DateUTC
2013-02-26 00:07:00,26.8,21.7,29.74,South,180,8.3,-999.0,81,-99.99,,,0.00,Acu-Link.com,2013-02-26 07:07:00,
2013-02-26 00:22:00,26.6,21.9,29.74,SSE,157,7.4,-999.0,82,-99.99,,,0.00,Acu-Link.com,2013-02-26 07:22:00,
2013-02-26 00:37:00,26.2,21.8,29.74,South,180,7.8,-999.0,83,-99.99,,,0.00,Acu-Link.com,2013-02-26 07:37:00,
2013-02-26 00:52:00,26.4,21.7,29.74,South,180,8.9,-999.0,82,-99.99,,,0.00,Acu-Link.com,2013-02-26 07:52:00,
2013-02-26 01:08:00,25.9,21.4,29.74,SE,135,7.8,-999.0,83,-99.99,,,0.00,Acu-Link.com,2013-02-26 08:08:00,
2013-02-26 01:23:00,25.9,21.4,29.74,SSW,202,8.9,-999.0,83,-99.99,,,0.00,Acu-Link.com,2013-02-26 08:23:00,
2013-02-26 01:38:00,25.9,21.4,29.74,SW,225,7.8,-999.0,83,-99.99,,,0.00,Acu-Link.com,2013-02-26 08:38:00,
2013-02-26 01:53:00,25.9,21.2,29.74,South,180,7.8,-999.0,82,-99.99,,,0.00,Acu-Link.com,2013-02-26 08:53:00,
2013-02-26 04:49:00,22.6,19.4,29.74,SSW,202,3.1,-999.0,87,-99.99,,,0.00,Acu-Link.com,2013-02-26 11:49:00,
2013-02-26 05:05:00,23.0,19.4,29.74,SSW,202,7.4,-999.0,86,-99.99,,,0.00,Acu-Link.com,2013-02-26 12:05:00,
2013-02-26 05:20:00,23.0,19.2,29.75,SW,225,3.1,-999.0,85,-99.99,,,0.00,Acu-Link.com,2013-02-26 12:20:00,
2013-02-26 05:35:00,22.5,18.6,29.76,West,270,2.7,-999.0,85,-99.99,,,0.00,Acu-Link.com,2013-02-26 12:35:00,
2013-02-26 05:50:00,21.2,17.9,29.77,SW,225,3.1,-999.0,87,-99.99,,,0.00,Acu-Link.com,2013-02-26 12:50:00,
2013-02-26 06:05:00,21.7,18.5,29.77,SSW,202,6.3,-999.0,87,-99.99,,,0.00,Acu-Link.com,2013-02-26 13:05:00,
2013-02-26 06:21:00,21.0,18.3,29.78,SSW,202,3.1,-999.0,89,-99.99,,,0.00,Acu-Link.com,2013-02-26 13:21:00,
2013-02-26 06:36:00,19.9,17.5,29.78,SSW,202,4.3,-999.0,90,-99.99,,,0.00,Acu-Link.com,2013-02-26 13:36:00,
2013-02-26 06:51:00,20.3,17.6,29.79,SSW,202,3.1,-999.0,89,-99.99,,,0.00,Acu-Link.com,2013-02-26 13:51:00,
2013-02-26 07:06:00,22.1,18.6,29.79,SSW,202,2.2,-999.0,86,-99.99,,,0.00,Acu-Link.com,2013-02-26 14:06:00,
2013-02-26 07:22:00,23.9,19.8,29.79,SSW,202,1.6,-999.0,84,-99.99,,,0.00,Acu-Link.com,2013-02-26 14:22:00,
2013-02-26 07:37:00,25.9,20.6,29.80,South,180,2.7,-999.0,80,-99.99,,,0.00,Acu-Link.com,2013-02-26 14:37:00,
2013-02-26 07:52:00,27.3,21.4,29.80,SSW,202,3.8,-999.0,78,-99.99,,,0.00,Acu-Link.com,2013-02-26 14:52:00,
2013-02-26 08:07:00,28.6,21.7,29.81,WSW,247,4.3,-999.0,75,-99.99,,,0.00,Acu-Link.com,2013-02-26 15:07:00,
2013-02-26 08:22:00,29.7,22.7,29.81,West,270,4.3,-999.0,75,-99.99,,,0.00,Acu-Link.com,2013-02-26 15:22:00,
2013-02-26 08:37:00,32.9,23.9,29.81,West,270,6.7,-999.0,69,-99.99,,,0.00,Acu-Link.com,2013-02-26 15:37:00,
2013-02-26 08:52:00,34.3,24.5,29.81,NW,315,7.8,-999.0,67,-99.99,,,0.00,Acu-Link.com,2013-02-26 15:52:00,
2013-02-26 09:08:00,35.8,25.6,29.81,West,270,9.4,-999.0,66,-99.99,,,0.00,Acu-Link.com,2013-02-26 16:08:00,
2013-02-26 09:23:00,36.7,26.0,29.81,NE,45,9.4,-999.0,65,-99.99,,,0.00,Acu-Link.com,2013-02-26 16:23:00,
2013-02-26 09:38:00,37.8,26.3,29.82,NW,315,14.1,-999.0,63,-99.99,,,0.00,Acu-Link.com,2013-02-26 16:38:00,
2013-02-26 09:53:00,38.1,27.0,29.82,NNE,22,6.3,-999.0,64,-99.99,,,0.00,Acu-Link.com,2013-02-26 16:53:00,
2013-02-26 10:09:00,38.7,27.5,29.82,NNW,337,12.5,-999.0,64,-99.99,,,0.00,Acu-Link.com,2013-02-26 17:09:00,
2013-02-26 10:24:00,40.1,27.7,29.82,NW,315,19.0,-999.0,61,-99.99,,,0.00,Acu-Link.com,2013-02-26 17:24:00,
2013-02-26 10:39:00,40.6,28.3,29.82,NW,315,16.6,-999.0,61,-99.99,,,0.00,Acu-Link.com,2013-02-26 17:39:00,
2013-02-26 10:54:00,41.5,28.7,29.82,NNW,337,11.4,-999.0,60,-99.99,,,0.00,Acu-Link.com,2013-02-26 17:54:00,
2013-02-26 11:10:00,41.5,27.9,29.83,NW,315,13.4,-999.0,58,-99.99,,,0.00,Acu-Link.com,2013-02-26 18:10:00,
2013-02-26 11:25:00,42.1,28.0,29.84,North,0,15.4,-999.0,57,-99.99,,,0.00,Acu-Link.com,2013-02-26 18:25:00,
2013-02-26 11:40:00,42.4,27.9,29.85,NNE,22,11.9,-999.0,56,-99.99,,,0.00,Acu-Link.com,2013-02-26 18:40:00,
2013-02-26 11:55:00,42.3,28.1,29.85,NNW,337,9.4,-999.0,57,-99.99,,,0.00,Acu-Link.com,2013-02-26 18:55:00,
2013-02-26 12:10:00,42.6,28.0,29.85,NNW,337,14.1,-999.0,56,-99.99,,,0.00,Acu-Link.com,2013-02-26 19:10:00,
2013-02-26 12:25:00,41.7,27.6,29.86,NW,315,13.0,-999.0,57,-99.99,,,0.00,Acu-Link.com,2013-02-26 19:25:00,
2013-02-26 12:41:00,41.5,28.3,29.86,NW,315,11.4,-999.0,59,-99.99,,,0.00,Acu-Link.com,2013-02-26 19:41:00,
2013-02-26 12:56:00,41.7,28.5,29.85,North,0,11.9,-999.0,59,-99.99,,,0.00,Acu-Link.com,2013-02-26 19:56:00,
2013-02-26 13:11:00,41.9,29.4,29.86,WNW,292,11.4,-999.0,61,-99.99,,,0.00,Acu-Link.com,2013-02-26 20:11:00,
2013-02-26 13:26:00,41.7,29.3,29.86,NW,315,12.5,-999.0,61,-99.99,,,0.00,Acu-Link.com,2013-02-26 20:26:00,
2013-02-26 13:42:00,41.7,29.7,29.86,NNW,337,11.4,-999.0,62,-99.99,,,0.00,Acu-Link.com,2013-02-26 20:42:00,
2013-02-26 13:57:00,41.9,29.4,29.87,NNW,337,11.9,-999.0,61,-99.99,,,0.00,Acu-Link.com,2013-02-26 20:57:00,
2013-02-26 14:12:00,41.4,29.7,29.87,SSW,202,11.0,-999.0,63,-99.99,,,0.00,Acu-Link.com,2013-02-26 21:12:00,
2013-02-26 14:28:00,41.2,29.9,29.88,WNW,292,14.5,-999.0,64,-99.99,,,0.00,Acu-Link.com,2013-02-26 21:28:00,
2013-02-26 14:43:00,40.6,29.8,29.88,West,270,10.3,-999.0,65,-99.99,,,0.00,Acu-Link.com,2013-02-26 21:43:00,
2013-02-26 14:58:00,39.9,29.5,29.89,WNW,292,11.4,-999.0,66,-99.99,,,0.00,Acu-Link.com,2013-02-26 21:58:00,
2013-02-26 15:13:00,39.4,30.1,29.90,NNW,337,15.4,-999.0,69,-99.99,,,0.00,Acu-Link.com,2013-02-26 22:13:00,
2013-02-26 15:29:00,38.8,29.9,29.90,West,270,19.7,-999.0,70,-99.99,,,0.00,Acu-Link.com,2013-02-26 22:29:00,
2013-02-26 15:44:00,35.2,28.8,29.91,WNW,292,14.1,-999.0,77,-99.99,,,0.00,Acu-Link.com,2013-02-26 22:44:00,
2013-02-26 15:59:00,34.3,28.2,29.91,WNW,292,15.0,-999.0,78,-99.99,,,0.00,Acu-Link.com,2013-02-26 22:59:00,
2013-02-26 16:15:00,33.3,27.8,29.93,WNW,292,15.0,-999.0,80,-99.99,,,0.00,Acu-Link.com,2013-02-26 23:15:00,
2013-02-26 16:30:00,33.3,27.8,29.93,WNW,292,15.0,-999.0,80,-99.99,,,0.00,Acu-Link.com,2013-02-26 23:30:00,
2013-02-26 16:45:00,31.5,26.9,29.93,WNW,292,14.5,-999.0,83,-99.99,,,0.00,Acu-Link.com,2013-02-26 23:45:00,
2013-02-26 17:01:00,31.5,26.9,29.94,WNW,292,14.5,-999.0,83,-99.99,,,0.00,Acu-Link.com,2013-02-27 00:01:00,
2013-02-26 17:16:00,31.5,26.3,29.94,WNW,292,18.1,-999.0,81,-99.99,,,0.00,Acu-Link.com,2013-02-27 00:16:00,
2013-02-26 17:31:00,31.3,26.4,29.95,NW,315,15.0,-999.0,82,-99.99,,,0.00,Acu-Link.com,2013-02-27 00:31:00,
2013-02-26 17:46:00,30.9,26.1,29.96,West,270,11.4,-999.0,82,-99.99,,,0.00,Acu-Link.com,2013-02-27 00:46:00,
2013-02-26 18:01:00,30.7,25.9,29.96,NNW,337,15.4,-999.0,82,-99.99,,,0.00,Acu-Link.com,2013-02-27 01:01:00,
2013-02-26 18:16:00,30.6,26.0,29.97,WNW,292,14.5,-999.0,83,-99.99,,,0.00,Acu-Link.com,2013-02-27 01:16:00,
2013-02-26 18:32:00,30.4,25.6,29.98,WNW,292,15.0,-999.0,82,-99.99,,,0.00,Acu-Link.com,2013-02-27 01:32:00,
2013-02-26 18:47:00,30.4,25.8,29.98,WNW,292,18.1,-999.0,83,-99.99,,,0.00,Acu-Link.com,2013-02-27 01:47:00,
2013-02-26 19:02:00,30.4,25.8,29.99,NW,315,13.4,-999.0,83,-99.99,,,0.00,Acu-Link.com,2013-02-27 02:02:00,
2013-02-26 19:18:00,30.4,25.6,29.99,WNW,292,10.3,-999.0,82,-99.99,,,0.00,Acu-Link.com,2013-02-27 02:18:00,
2013-02-26 19:33:00,30.4,25.6,29.99,WNW,292,17.7,-999.0,82,-99.99,,,0.00,Acu-Link.com,2013-02-27 02:33:00,
2013-02-26 19:48:00,30.0,25.5,30.00,NW,315,10.3,-999.0,83,-99.99,,,0.00,Acu-Link.com,2013-02-27 02:48:00,
2013-02-26 20:03:00,30.0,24.9,30.00,NW,315,11.0,-999.0,81,-99.99,,,0.00,Acu-Link.com,2013-02-27 03:03:00,
2013-02-26 20:18:00,29.8,25.0,30.00,North,0,7.8,-999.0,82,-99.99,,,0.00,Acu-Link.com,2013-02-27 03:18:00,
2013-02-26 20:34:00,29.8,24.7,30.01,NW,315,11.9,-999.0,81,-99.99,,,0.00,Acu-Link.com,2013-02-27 03:34:00,
2013-02-26 20:49:00,29.8,24.7,30.01,West,270,11.0,-999.0,81,-99.99,,,0.00,Acu-Link.com,2013-02-27 03:49:00,
2013-02-26 21:04:00,29.7,24.6,30.01,WNW,292,11.0,-999.0,81,-99.99,,,0.00,Acu-Link.com,2013-02-27 04:04:00,
2013-02-26 21:19:00,29.7,24.9,30.02,NW,315,9.4,-999.0,82,-99.99,,,0.00,Acu-Link.com,2013-02-27 04:19:00,
2013-02-26 21:34:00,29.5,25.0,30.02,NNE,22,7.8,-999.0,83,-99.99,,,0.00,Acu-Link.com,2013-02-27 04:34:00,
2013-02-26 21:49:00,29.3,24.8,30.02,NW,315,7.8,-999.0,83,-99.99,,,0.00,Acu-Link.com,2013-02-27 04:49:00,
2013-02-26 22:05:00,29.3,24.8,30.03,North,0,9.4,-999.0,83,-99.99,,,0.00,Acu-Link.com,2013-02-27 05:05:00,
2013-02-26 22:20:00,28.9,24.7,30.02,NW,315,9.8,-999.0,84,-99.99,,,0.00,Acu-Link.com,2013-02-27 05:20:00,
2013-02-26 22:35:00,28.9,25.0,30.02,WNW,292,6.3,-999.0,85,-99.99,,,0.00,Acu-Link.com,2013-02-27 05:35:00,
2013-02-26 22:50:00,28.8,24.8,30.03,WNW,292,10.3,-999.0,85,-99.99,,,0.00,Acu-Link.com,2013-02-27 05:50:00,
2013-02-26 23:05:00,28.8,24.8,30.02,WNW,292,10.3,-999.0,85,-99.99,,,0.00,Acu-Link.com,2013-02-27 06:05:00,
2013-02-26 23:21:00,28.8,24.8,30.03,WNW,292,10.3,-999.0,85,-99.99,,,0.00,Acu-Link.com,2013-02-27 06:21:00,
2013-02-26 23:36:00,28.8,24.8,30.03,WNW,292,10.3,-999.0,85,-99.99,,,0.00,Acu-Link.com,2013-02-27 06:36:00,
2013-02-26 23:51:00,28.6,24.4,30.02,NW,315,19.7,-999.0,84,-99.99,,,0.00,Acu-Link.com,2013-02-27 06:51:00,